CYMJ

Moose Jaw Air Vice Marshal C. M. McEwen Airport

Moose Jaw, Saskatchewan, Canada
TAF CYMJ 231730Z 2318/2406 31012G22KT P6SM FEW040 BKN260 FM240200 26005KT P6SM FEW060 RMK NXT FCST BY 240000Z
Issued Valid From Valid To
Apr-23 @ 17:30 UTC
(6 hours ago)
Apr-23 @ 18:00 UTC
(5 hours ago)
Apr-24 @ 06:00 UTC
(in 7 hours)
Apr-23 @ 18:00 to Apr-24 @ 02:00
TAF CYMJ 231730Z 2318/2406 31012G22KT P6SM FEW040 BKN260
Wind Visibility Clouds
310° at 12 knots
 Gusting to 22 knots
Greater than 6 miles
  • Few at 4,000' AGL
  • Broken at 26,000' AGL
From Apr-24 @ 02:00 to Apr-24 @ 06:00
FM240200 26005KT P6SM FEW060 RMK NXT FCST BY 240000Z
Wind Visibility Clouds
260° at 5 knots Greater than 6 miles
  • Few at 6,000' AGL
TAF CYMJ 231730Z 2318/2406 31012G22KT P6SM FEW040 BKN260 FM240200 26005KT P6SM FEW060 RMK NXT FCST BY 240000Z
Issued Apr-23 @ 17:30 UTC
(6 hours ago)
Valid From Apr-23 @ 18:00 UTC
(5 hours ago)
Valid To Apr-24 @ 06:00 UTC
(in 7 hours)
Apr-23 @ 18:00 - Apr-24 @ 02:00
Wind Visibility
310° at 12 knots
 Gusting to 22 knots
Greater than 6 miles
Clouds
  • Few at 4,000' AGL
  • Broken at 26,000' AGL
From Apr-24 @ 02:00 - Apr-24 @ 06:00
Wind Visibility
260° at 5 knots Greater than 6 miles
Clouds
  • Few at 6,000' AGL